Time;durP1;ratioP1;P1;durP2;ratioP2;P2;SDS_P1;SDS_P2;PMS_P1;PMS_P2;Temp;Humidity;BMP_temperature;BMP_pressure;BME280_temperature;BME280_humidity;BME280_pressure;Samples;Min_cycle;Max_cycle;Signal;HPM_P1;HPM_P2
2022/01/28 00:03:41;;;;;;;10.57;4.80;;;;;;;4.59;100.00;99361.16;9985856;29;20564;-65
2022/01/28 00:08:44;;;;;;;13.83;4.13;;;;;;;4.73;100.00;99354.28;9985724;29;20315;-67
2022/01/28 00:13:54;;;;;;;12.47;4.47;;;;;;;4.86;100.00;99356.81;9985375;29;20303;-66
2022/01/28 00:40:32;;;;;;;7.87;3.90;;;;;;;4.77;100.00;99349.97;10536565;28;20233;-69
2022/01/28 00:45:35;;;;;;;9.47;3.80;;;;;;;4.63;100.00;99344.03;10536323;28;20239;-70
2022/01/28 00:50:41;;;;;;;7.83;2.67;;;;;;;4.64;100.00;99349.16;10536183;28;20548;-68
2022/01/28 00:55:46;;;;;;;7.00;3.00;;;;;;;4.49;100.00;99341.50;10536171;28;20215;-66
2022/01/28 01:00:49;;;;;;;8.53;2.77;;;;;;;4.41;100.00;99335.53;10535487;28;20585;-69
2022/01/28 01:05:52;;;;;;;7.83;2.60;;;;;;;4.45;100.00;99326.94;10535873;28;20226;-71
2022/01/28 01:10:57;;;;;;;6.33;2.00;;;;;;;4.45;100.00;99324.38;10535592;28;20221;-68
2022/01/28 01:16:01;;;;;;;7.33;1.90;;;;;;;4.39;100.00;99314.13;10535008;28;20215;-68
2022/01/28 01:21:08;;;;;;;8.07;2.30;;;;;;;4.32;100.00;99303.84;10534877;28;20611;-65
2022/01/28 01:26:14;;;;;;;6.73;1.93;;;;;;;4.26;100.00;99289.31;10534669;28;20612;-69
2022/01/28 01:31:19;;;;;;;3.77;1.60;;;;;;;4.31;100.00;99284.19;10531925;28;20212;-65
2022/01/28 01:36:23;;;;;;;5.80;1.93;;;;;;;4.28;100.00;99279.91;10506405;28;20223;-66
2022/01/28 01:41:32;;;;;;;5.33;1.30;;;;;;;4.26;100.00;99284.19;10506089;28;20220;-65
2022/01/28 01:46:56;;;;;;;9.83;1.37;;;;;;;4.29;100.00;99258.50;10506003;28;20216;-71
2022/01/28 01:52:04;;;;;;;4.90;1.53;;;;;;;4.30;100.00;99251.63;10505927;28;20224;-71
2022/01/28 01:57:11;;;;;;;6.80;1.43;;;;;;;4.28;100.00;99241.38;10505659;28;20216;-66
2022/01/28 02:02:14;;;;;;;8.80;1.83;;;;;;;4.41;100.00;99237.06;10505382;28;20714;-65
2022/01/28 02:07:19;;;;;;;7.47;2.53;;;;;;;4.39;100.00;99244.78;10505142;28;20716;-67
2022/01/28 02:12:23;;;;;;;4.30;1.30;;;;;;;4.45;100.00;99216.47;10505340;28;20529;-67
2022/01/28 02:17:27;;;;;;;7.23;1.87;;;;;;;4.34;100.00;99209.69;10504897;28;20562;-67
2022/01/28 02:22:31;;;;;;;2.83;1.07;;;;;;;4.46;100.00;99207.06;10504430;28;20246;-65
2022/01/28 02:27:34;;;;;;;6.03;1.80;;;;;;;4.48;100.00;99205.34;10504294;28;20542;-68
2022/01/28 02:32:38;;;;;;;7.30;1.90;;;;;;;4.43;100.00;99199.38;10504170;28;20220;-69
2022/01/28 02:37:43;;;;;;;8.33;2.23;;;;;;;4.27;100.00;99174.63;10504027;28;20226;-67
2022/01/28 02:42:55;;;;;;;7.73;2.40;;;;;;;4.40;100.00;99189.97;10503434;28;20231;-68
2022/01/28 02:48:01;;;;;;;12.60;2.10;;;;;;;4.03;100.00;99173.00;10503040;28;20224;-71
2022/01/28 02:53:09;;;;;;;4.97;1.37;;;;;;;4.01;100.00;99179.84;10503282;28;20234;-64
2022/01/28 02:58:18;;;;;;;5.80;1.97;;;;;;;3.78;100.00;99171.34;10503383;28;20234;-67
2022/01/28 03:03:23;;;;;;;5.33;1.60;;;;;;;3.76;100.00;99190.19;10503148;28;20219;-66
2022/01/28 03:08:29;;;;;;;3.43;1.03;;;;;;;3.43;100.00;99188.53;10502915;28;20227;-64
2022/01/28 03:13:46;;;;;;;5.73;1.00;;;;;;;3.35;100.00;99165.44;10502786;28;20224;-68
2022/01/28 03:18:53;;;;;;;4.80;1.50;;;;;;;3.36;100.00;99148.34;10502266;28;20222;-65
2022/01/28 03:23:58;;;;;;;6.60;1.53;;;;;;;3.42;100.00;99156.03;10501877;28;20558;-65
2022/01/28 03:29:01;;;;;;;9.43;1.47;;;;;;;3.43;100.00;99144.94;10502132;28;20226;-63
2022/01/28 03:40:19;;;;;;;8.00;1.70;;;;;;;3.14;100.00;99149.22;10489676;28;20584;-66
2022/01/28 03:45:22;;;;;;;10.30;2.73;;;;;;;3.08;100.00;99155.19;10501411;28;20226;-64
2022/01/28 03:50:26;;;;;;;5.33;1.77;;;;;;;3.11;100.00;99155.19;10501285;28;20222;-64
2022/01/28 03:55:30;;;;;;;8.10;2.63;;;;;;;3.00;100.00;99161.19;10501024;28;20237;-64
2022/01/28 04:00:33;;;;;;;11.07;2.53;;;;;;;3.10;100.00;99150.06;10501403;28;20223;-66
2022/01/28 04:11:26;;;;;;;7.23;2.10;;;;;;;2.98;100.00;99150.94;10500909;28;20226;-61
2022/01/28 04:11:34;;;;;;;3.90;0.80;;;;;;;3.07;100.00;99155.22;10500821;28;20299;-62
2022/01/28 04:21:55;;;;;;;5.43;1.60;;;;;;;2.92;100.00;99152.63;10500754;28;20236;-64
2022/01/28 04:27:00;;;;;;;6.43;1.37;;;;;;;2.84;100.00;99146.63;10500313;28;20630;-69
2022/01/28 04:32:07;;;;;;;5.63;1.03;;;;;;;2.97;100.00;99123.59;10500401;28;20341;-62
2022/01/28 04:37:18;;;;;;;4.40;1.80;;;;;;;2.89;100.00;99163.72;10499610;28;20641;-65
2022/01/28 04:42:47;;;;;;;3.93;1.10;;;;;;;2.85;100.00;99151.75;10499085;28;20231;-61
2022/01/28 04:48:02;;;;;;;3.90;1.60;;;;;;;2.83;100.00;99161.16;10498790;28;20216;-66
2022/01/28 04:53:28;;;;;;;7.23;1.60;;;;;;;2.83;100.00;99163.72;10499083;28;20678;-61
2022/01/28 04:58:46;;;;;;;3.33;1.13;;;;;;;2.82;100.00;99179.06;10499400;28;20214;-64
2022/01/28 05:04:01;;;;;;;3.97;1.17;;;;;;;2.89;100.00;99188.47;10180697;27;10000150;-65
2022/01/28 05:09:42;;;;;;;7.57;1.30;;;;;;;2.80;100.00;99179.06;10538296;28;20195;-62
2022/01/28 05:26:00;;;;;;;7.00;1.20;;;;;;;2.94;100.00;99197.03;10462242;28;21085;-63
2022/01/28 05:31:05;;;;;;;5.67;1.20;;;;;;;3.02;100.00;99197.91;10462034;28;20247;-66
2022/01/28 05:36:08;;;;;;;5.03;1.30;;;;;;;3.01;100.00;99206.44;10462029;28;20304;-66
2022/01/28 05:41:12;;;;;;;3.53;1.37;;;;;;;3.15;100.00;99225.25;10460693;28;20239;-64
2022/01/28 05:46:18;;;;;;;3.20;1.00;;;;;;;3.18;100.00;99225.25;10460505;28;20217;-66
2022/01/28 05:51:21;;;;;;;4.67;1.00;;;;;;;3.21;100.00;99230.41;10460456;28;20242;-64
2022/01/28 05:56:24;;;;;;;6.97;3.07;;;;;;;3.35;100.00;99242.34;10492082;28;20545;-71
2022/01/28 06:01:29;;;;;;;4.47;1.17;;;;;;;3.45;100.00;99245.78;10516280;28;20853;-64
2022/01/28 06:06:33;;;;;;;1.93;0.70;;;;;;;3.52;100.00;99230.38;10157922;28;10000505;-67
2022/01/28 06:11:37;;;;;;;2.33;0.77;;;;;;;3.51;100.00;99232.97;10503938;28;20238;-65
2022/01/28 06:16:42;;;;;;;3.10;0.90;;;;;;;3.48;100.00;99250.91;10503081;28;20230;-66
2022/01/28 06:21:45;;;;;;;6.73;1.20;;;;;;;3.42;100.00;99243.22;10502877;28;20307;-63
2022/01/28 06:26:48;;;;;;;4.33;0.90;;;;;;;3.49;100.00;99258.59;10502551;28;20216;-64
2022/01/28 06:31:53;;;;;;;2.13;0.80;;;;;;;3.42;100.00;99262.03;10502796;28;20695;-67
2022/01/28 06:36:57;;;;;;;5.80;1.90;;;;;;;3.39;100.00;99266.28;10502054;28;20231;-65
2022/01/28 06:42:00;;;;;;;2.13;1.00;;;;;;;3.39;100.00;99279.13;10502777;28;20232;-68
2022/01/28 06:47:10;;;;;;;4.53;1.40;;;;;;;3.38;100.00;99279.97;10501740;28;20259;-65
2022/01/28 06:52:13;;;;;;;3.33;1.23;;;;;;;3.44;100.00;99279.97;10502290;28;20242;-64
2022/01/28 06:57:16;;;;;;;5.90;1.13;;;;;;;3.50;100.00;99297.94;10501248;28;20224;-65
2022/01/28 07:02:21;;;;;;;3.93;1.23;;;;;;;3.45;100.00;99315.03;10501814;28;20232;-65
2022/01/28 07:07:25;;;;;;;4.40;1.40;;;;;;;3.55;100.00;99317.59;10501079;28;20231;-65
2022/01/28 07:12:29;;;;;;;3.10;1.10;;;;;;;3.59;100.00;99331.28;10501576;28;20220;-65
2022/01/28 07:17:33;;;;;;;8.60;3.73;;;;;;;3.43;100.00;99334.69;10500287;28;20224;-66
2022/01/28 07:22:36;;;;;;;5.17;1.30;;;;;;;3.54;100.00;99331.28;10501053;28;20756;-64
2022/01/28 07:27:39;;;;;;;11.30;2.00;;;;;;;3.53;100.00;99341.53;10479716;28;20300;-64
2022/01/28 07:32:44;;;;;;;4.10;1.03;;;;;;;3.61;100.00;99373.19;10460013;28;20220;-63
2022/01/28 07:37:47;;;;;;;4.60;1.20;;;;;;;3.66;100.00;99371.47;10460179;28;20782;-63
2022/01/28 07:42:51;;;;;;;2.77;0.87;;;;;;;3.72;100.00;99376.63;10459974;28;20228;-65
2022/01/28 07:47:55;;;;;;;12.83;5.30;;;;;;;3.71;100.00;99386.88;10125551;27;10000464;-66
2022/01/28 07:52:59;;;;;;;5.83;2.30;;;;;;;3.75;100.00;99407.41;10539755;28;20197;-66
2022/01/28 07:58:03;;;;;;;4.53;1.30;;;;;;;3.75;100.00;99421.94;10495823;28;20185;-64
2022/01/28 08:03:08;;;;;;;4.00;1.13;;;;;;;3.64;100.00;99429.66;10455842;28;20549;-64
2022/01/28 08:14:30;;;;;;;2.57;0.97;;;;;;;3.66;100.00;99455.31;10369330;28;20225;-63
2022/01/28 08:19:35;;;;;;;5.17;2.10;;;;;;;3.89;100.00;99464.75;10467808;28;20216;-66
2022/01/28 08:24:38;;;;;;;3.50;0.77;;;;;;;3.84;100.00;99473.28;10455699;28;20236;-67
2022/01/28 08:29:41;;;;;;;2.73;1.03;;;;;;;3.84;100.00;99479.28;10455738;28;20545;-66
2022/01/28 08:34:50;;;;;;;3.40;0.80;;;;;;;3.81;100.00;99507.50;10455996;28;20220;-67
2022/01/28 08:39:53;;;;;;;5.50;1.30;;;;;;;3.76;100.00;99518.59;10455101;28;20670;-65
2022/01/28 08:44:56;;;;;;;2.73;0.83;;;;;;;3.80;100.00;99528.88;10461575;28;20647;-66
2022/01/28 08:50:01;;;;;;;2.77;1.10;;;;;;;3.75;100.00;99548.53;10516452;28;20620;-68
2022/01/28 08:55:06;;;;;;;3.80;0.87;;;;;;;3.77;100.00;99553.66;10546500;28;20223;-65
2022/01/28 09:00:11;;;;;;;3.10;0.80;;;;;;;3.74;100.00;99569.94;10482898;28;20220;-64
2022/01/28 09:05:16;;;;;;;2.63;0.77;;;;;;;3.76;100.00;99583.63;10462536;28;20294;-67
2022/01/28 09:10:23;;;;;;;2.37;0.83;;;;;;;3.71;100.00;99603.25;10462433;28;20217;-64
2022/01/28 09:15:27;;;;;;;3.80;1.03;;;;;;;3.80;100.00;99611.00;10462558;28;20217;-61
2022/01/28 09:20:35;;;;;;;2.13;0.70;;;;;;;3.70;100.00;99626.34;10462204;28;20315;-64
2022/01/28 09:25:38;;;;;;;2.97;1.03;;;;;;;3.74;100.00;99640.91;10462266;28;20228;-61
2022/01/28 09:30:42;;;;;;;9.77;1.20;;;;;;;3.75;100.00;99650.31;10462109;28;20548;-65
2022/01/28 09:35:47;;;;;;;3.63;0.93;;;;;;;3.77;100.00;99662.31;10461616;28;20232;-65
2022/01/28 09:40:50;;;;;;;2.00;0.73;;;;;;;3.80;100.00;99674.28;10461646;28;20193;-65
2022/01/28 09:45:53;;;;;;;3.17;0.70;;;;;;;3.83;100.00;99699.97;10461315;28;20760;-63
2022/01/28 09:51:00;;;;;;;2.70;0.87;;;;;;;3.89;100.00;99698.31;10465874;28;20238;-66
2022/01/28 09:56:04;;;;;;;3.97;0.93;;;;;;;3.96;100.00;99725.72;10460524;28;20188;-62
2022/01/28 10:01:07;;;;;;;3.83;0.80;;;;;;;3.92;100.00;99721.41;10460782;28;20189;-65
2022/01/28 10:06:12;;;;;;;1.37;0.53;;;;;;;3.93;100.00;99730.84;10460589;28;20242;-63
2022/01/28 10:11:20;;;;;;;2.37;0.90;;;;;;;3.87;100.00;99750.47;10460772;28;20279;-66
2022/01/28 10:16:26;;;;;;;1.43;0.57;;;;;;;3.96;100.00;99753.97;10460346;28;20211;-65
2022/01/28 10:21:36;;;;;;;2.87;0.77;;;;;;;4.03;100.00;99772.81;10460097;28;20228;-63
2022/01/28 10:26:43;;;;;;;2.87;0.97;;;;;;;3.98;100.00;99779.63;10460217;28;20281;-61
2022/01/28 10:31:52;;;;;;;2.73;0.73;;;;;;;3.99;100.00;99797.63;10459621;28;20195;-66
2022/01/28 10:37:12;;;;;;;4.37;1.43;;;;;;;4.00;100.00;99804.47;10459588;28;20299;-64
2022/01/28 10:42:17;;;;;;;3.17;0.80;;;;;;;4.10;100.00;99811.41;10458932;28;20197;-62
2022/01/28 10:47:36;;;;;;;3.20;0.97;;;;;;;4.14;100.00;99820.81;10467187;28;20215;-62
2022/01/28 10:52:41;;;;;;;3.37;1.03;;;;;;;4.27;100.00;99840.63;10465497;28;20234;-66
2022/01/28 10:57:56;;;;;;;2.70;0.90;;;;;;;4.31;100.00;99857.78;10458377;28;20276;-63
2022/01/28 11:03:01;;;;;;;2.47;1.07;;;;;;;4.34;100.00;99846.63;10458386;28;20223;-66
2022/01/28 11:08:09;;;;;;;3.83;0.70;;;;;;;4.30;100.00;99868.00;10457577;28;20237;-64
2022/01/28 11:13:12;;;;;;;2.43;0.87;;;;;;;4.34;100.00;99868.06;10457992;28;20224;-65
2022/01/28 11:18:17;;;;;;;3.27;1.03;;;;;;;4.35;100.00;99889.44;10458003;28;20679;-63
2022/01/28 11:23:30;;;;;;;5.43;1.37;;;;;;;4.32;100.00;99890.31;10145724;28;9999921;-68
2022/01/28 11:28:42;;;;;;;2.77;0.73;;;;;;;4.41;100.00;99910.06;10501943;28;20215;-67
2022/01/28 11:33:48;;;;;;;5.90;1.47;;;;;;;4.31;100.00;99914.28;10501213;28;20680;-68
2022/01/28 11:38:56;;;;;;;4.13;1.30;;;;;;;4.26;100.00;99931.31;10501022;28;20676;-64
2022/01/28 11:43:59;;;;;;;2.87;0.87;;;;;;;4.22;100.00;99945.00;10460307;28;20229;-64
2022/01/28 11:49:24;;;;;;;4.47;0.80;;;;;;;4.26;100.00;99949.31;10460185;28;20227;-61
2022/01/28 11:54:38;;;;;;;3.33;0.90;;;;;;;4.43;100.00;99955.47;10501145;28;20216;-66
2022/01/28 11:59:41;;;;;;;2.70;0.90;;;;;;;4.45;100.00;99948.59;10500289;28;20665;-61
2022/01/28 12:04:45;;;;;;;2.77;0.90;;;;;;;4.49;98.13;99970.91;10500801;28;20252;-69
2022/01/28 12:09:52;;;;;;;3.30;1.07;;;;;;;4.48;100.00;99981.19;10499893;28;20231;-63
2022/01/28 12:15:12;;;;;;;5.37;1.93;;;;;;;5.09;100.00;99990.19;10500691;28;20228;-66
2022/01/28 12:20:42;;;;;;;2.77;1.07;;;;;;;4.78;100.00;100004.53;10499707;28;20238;-66
2022/01/28 12:25:55;;;;;;;2.87;0.80;;;;;;;5.03;100.00;99993.56;10462528;28;20581;-64
2022/01/28 12:31:07;;;;;;;3.37;1.10;;;;;;;4.81;99.72;100021.69;10458877;28;20217;-62
2022/01/28 12:36:13;;;;;;;2.47;0.83;;;;;;;4.77;98.40;100035.38;10458486;28;20289;-62
2022/01/28 12:41:18;;;;;;;5.60;1.20;;;;;;;4.88;96.56;100046.59;10469590;28;20223;-65
2022/01/28 12:46:23;;;;;;;2.30;0.67;;;;;;;4.92;93.48;100054.34;10499871;28;20569;-65
2022/01/28 12:51:26;;;;;;;10.83;4.17;;;;;;;4.83;93.66;100061.13;10499203;28;20216;-62
2022/01/28 12:56:34;;;;;;;3.77;1.13;;;;;;;4.76;94.60;100062.81;10499688;28;20679;-66
2022/01/28 13:01:37;;;;;;;3.07;1.10;;;;;;;4.74;94.77;100080.75;10498941;28;20216;-65
2022/01/28 13:08:24;;;;;;;5.47;0.97;;;;;;;4.63;93.77;100084.97;10499337;28;20674;-62
2022/01/28 13:12:27;;;;;;;3.90;0.90;;;;;;;4.65;92.31;100090.97;10498963;28;20234;-65
2022/01/28 13:17:31;;;;;;;2.77;0.90;;;;;;;4.60;90.80;100102.06;10499485;28;20304;-64
2022/01/28 13:22:34;;;;;;;2.53;0.67;;;;;;;4.59;90.19;100103.75;10498062;28;20243;-64
2022/01/28 13:27:45;;;;;;;3.27;0.90;;;;;;;4.52;90.18;100129.41;10499603;28;20230;-63
2022/01/28 13:32:50;;;;;;;2.10;0.80;;;;;;;4.47;88.35;100134.47;10506118;28;20226;-65
2022/01/28 13:37:57;;;;;;;3.33;0.77;;;;;;;4.42;87.91;100145.53;10506239;28;20269;-62
2022/01/28 13:43:05;;;;;;;1.60;0.60;;;;;;;4.45;87.84;100161.00;10505586;28;20212;-64
2022/01/28 13:48:13;;;;;;;9.87;4.10;;;;;;;4.43;89.08;100165.25;10505878;28;20552;-63
2022/01/28 13:58:51;;;;;;;3.47;0.70;;;;;;;4.53;87.49;100182.50;10506043;28;20226;-65
2022/01/28 14:03:57;;;;;;;3.60;0.83;;;;;;;4.49;87.42;100191.00;10504940;28;20216;-64
2022/01/28 14:09:09;;;;;;;1.90;0.60;;;;;;;4.53;88.14;100195.34;10505261;28;20362;-62
2022/01/28 14:14:18;;;;;;;3.70;0.93;;;;;;;4.45;88.68;100220.94;10504476;28;20669;-64
2022/01/28 14:19:22;;;;;;;2.07;0.60;;;;;;;4.44;90.58;100244.94;10505058;28;20246;-63
2022/01/28 14:24:27;;;;;;;1.83;0.70;;;;;;;4.37;91.74;100261.09;10504008;28;20234;-63
2022/01/28 14:29:49;;;;;;;38.43;20.73;;;;;;;4.38;94.06;100273.09;10504200;28;20212;-62
2022/01/28 14:34:55;;;;;;;5.17;1.30;;;;;;;4.43;93.63;100279.19;10503554;28;20224;-65
2022/01/28 14:39:58;;;;;;;3.27;1.13;;;;;;;4.25;94.88;100289.19;10504019;28;20249;-66
2022/01/28 14:45:03;;;;;;;3.73;1.10;;;;;;;4.20;96.69;100305.38;10503097;28;20224;-64
2022/01/28 14:50:07;;;;;;;11.37;4.37;;;;;;;4.21;97.27;100320.81;10504194;28;20220;-64
2022/01/28 14:55:10;;;;;;;3.47;1.23;;;;;;;4.24;97.09;100325.13;10502732;28;20321;-65
2022/01/28 15:00:17;;;;;;;3.67;1.00;;;;;;;4.18;97.37;100349.00;10503147;28;20539;-64
2022/01/28 15:05:20;;;;;;;6.30;1.43;;;;;;;4.17;96.01;100354.13;10502416;28;20238;-64
2022/01/28 15:10:28;;;;;;;7.00;1.07;;;;;;;4.16;95.10;100363.53;10502861;28;20233;-68
2022/01/28 15:15:32;;;;;;;4.00;1.10;;;;;;;4.24;95.46;100373.94;10502114;28;20228;-61
2022/01/28 15:20:38;;;;;;;4.80;1.30;;;;;;;4.27;94.25;100390.25;10502227;28;20242;-64
2022/01/28 15:25:41;;;;;;;3.90;1.10;;;;;;;4.19;93.33;100424.38;10501354;28;20224;-62
2022/01/28 15:36:10;;;;;;;3.30;0.90;;;;;;;4.00;92.83;100433.47;10501156;28;20220;-62
2022/01/28 15:41:14;;;;;;;2.67;0.93;;;;;;;3.96;91.80;100446.22;10501508;28;20220;-63
2022/01/28 15:46:18;;;;;;;4.10;1.00;;;;;;;3.92;91.41;100452.16;10500378;28;20230;-62
2022/01/28 15:51:21;;;;;;;3.80;0.90;;;;;;;3.86;91.53;100463.16;10500707;28;20353;-63
2022/01/28 15:56:25;;;;;;;2.90;0.70;;;;;;;3.84;91.60;100475.09;10500317;28;20250;-65
2022/01/28 16:01:29;;;;;;;4.83;1.20;;;;;;;3.73;92.40;100491.16;10500841;28;20215;-64
2022/01/28 16:06:37;;;;;;;21.37;7.30;;;;;;;3.68;93.36;100497.88;10499892;28;20220;-62
2022/01/28 16:11:46;;;;;;;3.13;0.80;;;;;;;3.68;91.33;100503.88;10500650;28;20329;-65
2022/01/28 16:17:11;;;;;;;2.80;0.93;;;;;;;3.67;90.06;100512.41;10500291;28;20220;-63
2022/01/28 16:22:15;;;;;;;3.33;0.87;;;;;;;3.75;89.22;100513.44;10499573;28;20244;-65
2022/01/28 16:27:18;;;;;;;4.33;1.30;;;;;;;3.70;88.41;100525.31;10500346;28;20241;-64
2022/01/28 16:32:22;;;;;;;9.50;1.30;;;;;;;3.61;88.93;100527.69;10500370;28;20311;-63
2022/01/28 16:37:26;;;;;;;4.93;0.90;;;;;;;3.58;86.94;100527.63;10500307;28;20220;-64
2022/01/28 16:42:36;;;;;;;3.20;0.80;;;;;;;3.46;86.75;100541.06;10500093;28;20729;-62
2022/01/28 16:47:41;;;;;;;3.17;0.90;;;;;;;3.49;86.23;100548.81;10500095;28;20280;-64
2022/01/28 16:52:45;;;;;;;7.60;1.03;;;;;;;3.39;86.34;100561.41;10499807;28;20223;-65
2022/01/28 16:57:49;;;;;;;7.50;1.27;;;;;;;3.36;88.01;100566.50;10498767;28;20216;-64
2022/01/28 17:02:54;;;;;;;4.33;1.30;;;;;;;3.23;89.51;100569.59;10498522;28;20681;-63
2022/01/28 17:07:57;;;;;;;5.20;1.07;;;;;;;3.18;89.83;100589.16;10505736;28;20255;-63
2022/01/28 17:13:02;;;;;;;7.23;1.83;;;;;;;3.20;90.45;100603.75;10505911;28;20212;-63
2022/01/28 17:18:07;;;;;;;14.67;6.63;;;;;;;3.18;91.17;100614.78;10505798;28;20327;-66
2022/01/28 17:23:11;;;;;;;4.50;1.53;;;;;;;3.26;91.37;100619.25;10504961;28;20574;-64
2022/01/28 17:28:14;;;;;;;6.57;1.33;;;;;;;3.19;92.45;100613.97;10505355;28;20231;-63
2022/01/28 17:33:19;;;;;;;5.43;1.47;;;;;;;3.18;92.75;100635.28;10504936;28;20286;-63
2022/01/28 17:38:25;;;;;;;3.47;1.17;;;;;;;3.10;93.13;100645.41;10505152;28;20223;-64
2022/01/28 17:43:28;;;;;;;3.83;0.87;;;;;;;3.14;93.27;100661.72;10505944;28;20222;-64
2022/01/28 17:48:33;;;;;;;4.53;1.40;;;;;;;3.16;93.32;100667.72;10504844;28;20223;-64
2022/01/28 17:53:37;;;;;;;4.00;1.33;;;;;;;3.17;93.74;100661.78;10504982;28;20541;-65
2022/01/28 17:58:41;;;;;;;3.27;1.20;;;;;;;3.20;93.75;100675.56;10504997;28;20216;-65
2022/01/28 18:03:46;;;;;;;5.23;1.60;;;;;;;3.28;93.45;100698.78;10504310;28;20239;-61
2022/01/28 18:08:49;;;;;;;6.30;1.67;;;;;;;3.20;93.21;100705.44;10504997;28;20311;-63
2022/01/28 18:13:55;;;;;;;4.70;1.50;;;;;;;3.26;92.80;100709.03;10504756;28;20235;-62
2022/01/28 18:18:59;;;;;;;3.63;1.50;;;;;;;3.31;93.04;100715.13;10504976;28;20662;-64
2022/01/28 18:24:03;;;;;;;30.50;15.43;;;;;;;3.46;93.19;100720.66;10504358;28;20674;-62
2022/01/28 18:29:07;;;;;;;4.03;1.47;;;;;;;3.34;93.69;100742.56;10503900;28;20215;-64
2022/01/28 18:34:12;;;;;;;5.67;1.40;;;;;;;3.24;93.97;100732.91;10504228;28;20295;-64
2022/01/28 18:39:15;;;;;;;6.67;1.53;;;;;;;3.20;94.04;100739.66;10504004;28;20230;-67
2022/01/28 18:44:19;;;;;;;4.40;1.47;;;;;;;3.14;94.69;100752.31;10503734;28;20679;-65
2022/01/28 18:49:24;;;;;;;4.67;1.63;;;;;;;3.16;94.82;100752.34;10503520;28;20579;-66
2022/01/28 18:54:28;;;;;;;19.47;9.33;;;;;;;3.17;95.43;100770.34;10486603;28;20228;-66
2022/01/28 18:59:31;;;;;;;8.83;2.87;;;;;;;3.22;95.82;100780.72;10461570;28;20706;-63
2022/01/28 19:04:36;;;;;;;7.07;1.80;;;;;;;3.28;95.71;100788.56;10482095;28;20195;-61
2022/01/28 19:09:39;;;;;;;5.10;1.47;;;;;;;3.30;95.72;100810.00;10492925;28;20227;-66
2022/01/28 19:14:42;;;;;;;6.97;1.70;;;;;;;3.20;96.28;100824.28;10480405;28;20220;-65
2022/01/28 19:19:48;;;;;;;4.13;1.53;;;;;;;3.16;96.05;100829.25;10460600;28;20241;-64
2022/01/28 19:24:51;;;;;;;49.53;24.17;;;;;;;3.12;97.50;100833.44;10460512;28;20634;-63
2022/01/28 19:29:55;;;;;;;5.33;2.37;;;;;;;3.32;96.99;100827.16;10460324;28;20733;-64
2022/01/28 19:35:00;;;;;;;3.73;1.43;;;;;;;3.27;96.79;100839.00;10481118;28;20203;-61
2022/01/28 19:40:04;;;;;;;3.73;1.50;;;;;;;3.18;96.38;100841.31;10471377;28;20196;-66
2022/01/28 19:45:09;;;;;;;7.40;2.00;;;;;;;3.12;96.80;100843.69;10460721;28;20554;-63
2022/01/28 19:50:15;;;;;;;8.83;3.13;;;;;;;3.11;97.62;100852.22;10477042;28;20216;-68
2022/01/28 19:55:19;;;;;;;3.60;1.60;;;;;;;3.06;97.11;100868.31;10501258;28;20320;-64
2022/01/28 20:00:23;;;;;;;3.97;1.50;;;;;;;3.07;96.99;100868.34;10500838;28;20220;-63
2022/01/28 20:05:27;;;;;;;5.20;1.80;;;;;;;3.09;96.40;100888.94;10500749;28;20685;-62
2022/01/28 20:10:30;;;;;;;8.17;2.60;;;;;;;3.03;96.03;100897.31;10500770;28;20220;-65
2022/01/28 20:15:34;;;;;;;5.80;1.87;;;;;;;2.98;95.77;100914.25;10500562;28;20291;-62
2022/01/28 20:20:39;;;;;;;4.90;1.60;;;;;;;2.93;96.71;100918.38;10500264;28;20572;-62
2022/01/28 20:25:44;;;;;;;5.10;1.70;;;;;;;2.89;96.68;100925.91;10500487;28;20216;-64
2022/01/28 20:30:47;;;;;;;7.20;2.10;;;;;;;2.78;97.30;100928.16;10500466;28;20220;-67
2022/01/28 20:35:56;;;;;;;6.63;1.70;;;;;;;2.70;97.14;100933.88;10500210;28;20298;-66
2022/01/28 20:41:00;;;;;;;9.13;2.33;;;;;;;2.64;97.61;100941.41;10508332;28;20219;-63
2022/01/28 20:46:04;;;;;;;5.13;1.50;;;;;;;2.65;98.52;100966.19;10165560;27;10000341;-64
2022/01/28 20:51:11;;;;;;;5.60;2.00;;;;;;;2.62;98.70;100966.09;10547223;28;20211;-64
2022/01/28 20:56:14;;;;;;;8.00;2.10;;;;;;;2.65;98.15;100990.13;10547425;28;20237;-65
2022/01/28 21:01:18;;;;;;;6.57;1.83;;;;;;;2.60;98.06;100993.34;10546708;28;20566;-65
2022/01/28 21:06:24;;;;;;;8.50;1.80;;;;;;;2.65;97.90;101007.19;10546478;28;20224;-66
2022/01/28 21:11:27;;;;;;;6.53;1.57;;;;;;;2.59;96.43;101025.78;10546045;28;20226;-63
2022/01/28 21:16:30;;;;;;;5.80;2.10;;;;;;;2.57;95.78;101031.69;10546058;28;20302;-65
2022/01/28 21:21:35;;;;;;;9.23;2.60;;;;;;;2.45;95.89;101029.56;10545576;28;20239;-66
2022/01/28 21:26:38;;;;;;;10.53;3.87;;;;;;;2.54;95.28;101035.00;10545206;28;20227;-65
2022/01/28 21:31:44;;;;;;;8.83;3.10;;;;;;;2.27;96.41;101046.91;10545602;28;20223;-67
2022/01/28 21:36:49;;;;;;;10.13;2.27;;;;;;;2.20;97.45;101055.19;10545104;28;20301;-65
2022/01/28 21:41:52;;;;;;;6.60;1.97;;;;;;;2.08;98.52;101071.00;10544576;28;20227;-66
2022/01/28 21:46:55;;;;;;;6.50;1.83;;;;;;;2.30;96.58;101082.84;10177819;28;10000134;-64
2022/01/28 21:52:00;;;;;;;5.27;1.47;;;;;;;2.29;96.34;101083.69;10505000;28;20226;-64
2022/01/28 21:57:04;;;;;;;7.87;2.33;;;;;;;2.26;95.86;101099.78;10505718;28;20216;-62
2022/01/28 22:02:08;;;;;;;7.10;1.93;;;;;;;2.16;96.23;101099.41;10505720;28;20220;-63
2022/01/28 22:07:12;;;;;;;6.83;1.80;;;;;;;2.09;96.60;101120.50;10505160;28;20234;-64
2022/01/28 22:12:16;;;;;;;9.47;1.97;;;;;;;2.08;96.33;101117.09;10505158;28;20677;-64
2022/01/28 22:17:19;;;;;;;7.33;2.00;;;;;;;2.04;96.76;101119.47;10504962;28;20263;-64
2022/01/28 22:22:24;;;;;;;9.13;1.90;;;;;;;2.01;96.63;101115.13;10504499;28;20622;-65
2022/01/28 22:27:27;;;;;;;5.67;2.10;;;;;;;2.00;96.10;101126.16;10505813;28;20569;-65
2022/01/28 22:32:31;;;;;;;13.53;3.10;;;;;;;1.83;96.39;101136.63;10504242;28;20222;-63
2022/01/28 22:37:35;;;;;;;44.30;19.73;;;;;;;1.97;97.10;101125.19;10502158;28;20216;-62
2022/01/28 22:42:39;;;;;;;9.80;2.97;;;;;;;1.95;96.39;101117.44;10502846;28;20218;-64
2022/01/28 22:47:42;;;;;;;5.60;1.77;;;;;;;1.90;95.34;101125.75;10503677;28;20220;-66
2022/01/28 22:52:47;;;;;;;5.80;1.83;;;;;;;1.91;95.34;101120.72;10503481;28;20626;-64
2022/01/28 22:57:50;;;;;;;8.63;2.10;;;;;;;1.84;95.36;101117.88;10503204;28;20203;-64
2022/01/28 23:02:53;;;;;;;6.30;1.87;;;;;;;1.82;94.48;101124.63;10501932;28;20341;-62
2022/01/28 23:07:58;;;;;;;5.17;1.60;;;;;;;1.73;94.37;101122.59;10502929;28;20303;-65
2022/01/28 23:13:01;;;;;;;6.77;1.80;;;;;;;1.73;94.13;101129.41;10502799;28;20271;-62
2022/01/28 23:18:05;;;;;;;6.13;1.60;;;;;;;1.71;93.63;101129.34;10502742;28;20633;-63
2022/01/28 23:23:09;;;;;;;5.70;1.37;;;;;;;1.71;92.79;101128.50;10502667;28;20242;-66
2022/01/28 23:28:16;;;;;;;7.43;1.50;;;;;;;1.68;92.41;101129.22;10502097;28;20216;-64
2022/01/28 23:33:19;;;;;;;5.97;1.57;;;;;;;1.62;92.22;101138.38;10501729;28;20275;-63
2022/01/28 23:38:24;;;;;;;5.53;1.73;;;;;;;1.55;92.04;101147.50;10501671;28;20656;-66
2022/01/28 23:43:27;;;;;;;6.47;1.70;;;;;;;1.56;91.49;101150.91;10160295;27;10000156;-66
2022/01/28 23:48:30;;;;;;;3.70;1.07;;;;;;;1.57;91.62;101152.66;10540252;28;20599;-61
2022/01/28 23:53:35;;;;;;;7.33;1.50;;;;;;;1.54;91.28;101167.88;10539919;28;20219;-62
2022/01/28 23:58:38;;;;;;;7.83;1.93;;;;;;;1.45;91.23;101168.41;10539713;28;20223;-63
